Airport ID:KJWN
Update Time (UTC):22/08/2019 10:16
Wind Speed (Knots):1
Wind Direction (Magnetic):360
Temperature (°C):25
Dew Point (°C):23
Humidity (%):90
Altimeter (inHg):30
Density Altitude (Feet):2000
Visibility (Miles):10+
Clouds (Hundreds of feet):FEW045
Present Weather:
METAR:METAR KJWN 221015Z AUTO 00000KT 10SM FEW045 25/23 A3000 RMK A01

The data displayed is for advisory purposes only and is not to be used for flight planning or operations.

This page is not automatically refreshed. Reload the page to see current data.